createdAt,value
2016-10-18T00:00:07.612Z,961.33
2016-10-18T00:01:08.348Z,961.37
2016-10-18T00:02:08.404Z,961.35
2016-10-18T00:03:07.487Z,961.38
2016-10-18T00:04:08.399Z,961.35
2016-10-18T00:05:08.444Z,961.39
2016-10-18T00:06:07.630Z,961.37
2016-10-18T00:07:08.375Z,961.40
2016-10-18T00:08:07.669Z,961.37
2016-10-18T00:09:08.368Z,961.30
2016-10-18T00:10:08.355Z,961.29
2016-10-18T00:11:07.625Z,961.30
2016-10-18T00:12:08.276Z,961.30
2016-10-18T00:13:08.315Z,961.30
2016-10-18T00:14:08.384Z,961.32
2016-10-18T00:15:08.355Z,961.27
2016-10-18T00:16:08.827Z,961.26
2016-10-18T00:17:08.421Z,961.26
2016-10-18T00:18:08.417Z,961.24
2016-10-18T00:19:08.236Z,961.25
2016-10-18T00:20:08.293Z,961.22
2016-10-18T00:21:08.329Z,961.27
2016-10-18T00:22:08.398Z,961.23
2016-10-18T00:23:07.425Z,961.26
2016-10-18T00:24:08.097Z,961.26
2016-10-18T00:25:08.335Z,961.25
2016-10-18T00:26:08.226Z,961.24
2016-10-18T00:27:08.107Z,961.27
2016-10-18T00:28:08.195Z,961.24
2016-10-18T00:29:08.278Z,961.26
2016-10-18T00:30:09.100Z,961.21
2016-10-18T00:31:08.261Z,961.23
2016-10-18T00:32:08.319Z,961.25
2016-10-18T00:33:08.328Z,961.23
2016-10-18T00:34:08.293Z,961.25
2016-10-18T00:35:08.175Z,961.23
2016-10-18T00:36:08.215Z,961.24
2016-10-18T00:37:08.083Z,961.24
2016-10-18T00:38:08.230Z,961.20
2016-10-18T00:39:08.356Z,961.25
2016-10-18T00:40:08.185Z,961.22
2016-10-18T00:41:08.285Z,961.20
2016-10-18T00:42:08.170Z,961.20
2016-10-18T00:43:08.233Z,961.21
2016-10-18T00:44:08.108Z,961.23
2016-10-18T00:45:09.010Z,961.23
2016-10-18T00:46:08.205Z,961.27
2016-10-18T00:47:08.235Z,961.27
2016-10-18T00:48:08.239Z,961.23
2016-10-18T00:49:08.193Z,961.21
2016-10-18T00:50:08.269Z,961.21
2016-10-18T00:51:08.173Z,961.22
2016-10-18T00:52:08.272Z,961.21
2016-10-18T00:53:08.258Z,961.24
2016-10-18T00:54:08.277Z,961.22
2016-10-18T00:55:08.213Z,961.22
2016-10-18T00:56:08.259Z,961.20
2016-10-18T00:57:08.341Z,961.22
2016-10-18T00:58:08.261Z,961.20
2016-10-18T00:59:08.290Z,961.20
2016-10-18T01:00:08.416Z,961.29
2016-10-18T01:01:08.160Z,961.22
2016-10-18T01:02:08.240Z,961.27
2016-10-18T01:03:08.233Z,961.26
2016-10-18T01:04:08.230Z,961.23
2016-10-18T01:05:08.297Z,961.21
2016-10-18T01:06:08.326Z,961.20
2016-10-18T01:07:08.296Z,961.21
2016-10-18T01:08:09.109Z,961.19
2016-10-18T01:09:08.385Z,961.18
2016-10-18T01:10:08.367Z,961.17
2016-10-18T01:11:08.178Z,961.14
2016-10-18T01:12:08.266Z,961.15
2016-10-18T01:13:08.307Z,961.16
2016-10-18T01:14:08.205Z,961.14
2016-10-18T01:15:08.760Z,961.13
2016-10-18T01:16:08.239Z,961.13
2016-10-18T01:17:08.245Z,961.14
2016-10-18T01:18:08.282Z,961.15
2016-10-18T01:19:08.339Z,961.14
2016-10-18T01:20:08.421Z,961.14
2016-10-18T01:21:08.368Z,961.11
2016-10-18T01:22:08.337Z,961.10
2016-10-18T01:23:08.183Z,961.12
2016-10-18T01:24:08.279Z,961.10
2016-10-18T01:25:08.312Z,961.07
2016-10-18T01:26:08.283Z,961.10
2016-10-18T01:27:08.318Z,961.09
2016-10-18T01:28:08.223Z,961.08
2016-10-18T01:29:08.334Z,961.06
2016-10-18T01:30:09.343Z,961.07
2016-10-18T01:31:09.793Z,961.08
2016-10-18T01:32:08.239Z,961.05
2016-10-18T01:33:08.262Z,961.04
2016-10-18T01:34:08.331Z,961.08
2016-10-18T01:35:08.313Z,961.08
2016-10-18T01:36:08.395Z,961.09
2016-10-18T01:37:08.316Z,961.04
2016-10-18T01:38:08.295Z,961.06
2016-10-18T01:39:08.283Z,961.06
2016-10-18T01:40:08.237Z,961.05
2016-10-18T01:41:08.370Z,961.10
2016-10-18T01:42:08.337Z,961.07
2016-10-18T01:43:09.045Z,961.06
2016-10-18T01:44:08.303Z,961.04
2016-10-18T01:45:08.803Z,961.08
2016-10-18T01:46:08.383Z,961.05
2016-10-18T01:47:08.336Z,961.07
2016-10-18T01:48:08.345Z,961.07
2016-10-18T01:49:08.313Z,961.02
2016-10-18T01:50:08.220Z,961.01
2016-10-18T01:51:08.413Z,961.06
2016-10-18T01:52:08.309Z,960.99
2016-10-18T01:53:08.195Z,961.03
2016-10-18T01:54:08.212Z,961.00
2016-10-18T01:55:08.233Z,960.99
2016-10-18T01:56:08.302Z,961.05
2016-10-18T01:57:08.309Z,961.00
2016-10-18T01:58:09.114Z,961.01
2016-10-18T01:59:08.322Z,961.01
2016-10-18T02:00:09.317Z,961.02
2016-10-18T02:01:10.070Z,961.00
2016-10-18T02:02:08.322Z,960.94
2016-10-18T02:03:08.381Z,960.95
2016-10-18T02:04:08.381Z,960.94
2016-10-18T02:05:08.322Z,960.98
2016-10-18T02:06:08.336Z,960.97
2016-10-18T02:07:08.365Z,960.97
2016-10-18T02:08:08.335Z,960.90
2016-10-18T02:09:08.352Z,960.95
2016-10-18T02:10:08.324Z,960.91
2016-10-18T02:11:08.272Z,960.92
2016-10-18T02:12:08.225Z,960.91
2016-10-18T02:13:08.367Z,960.88
2016-10-18T02:14:08.307Z,960.87
2016-10-18T02:15:09.256Z,960.87
2016-10-18T02:16:08.768Z,960.86
2016-10-18T02:17:08.335Z,960.83
2016-10-18T02:18:08.677Z,960.83
2016-10-18T02:19:08.278Z,960.84
2016-10-18T02:20:08.267Z,960.86
2016-10-18T02:21:08.394Z,960.86
2016-10-18T02:22:08.273Z,960.86
2016-10-18T02:23:08.359Z,960.92
2016-10-18T02:24:08.311Z,960.86
2016-10-18T02:25:08.525Z,960.90
2016-10-18T02:26:08.396Z,960.89
2016-10-18T02:27:08.396Z,960.87
2016-10-18T02:28:08.470Z,960.87
2016-10-18T02:29:08.286Z,960.91
2016-10-18T02:30:08.807Z,960.89
2016-10-18T02:31:08.437Z,960.89
2016-10-18T02:32:08.431Z,960.93
2016-10-18T02:33:08.412Z,960.96
2016-10-18T02:34:08.426Z,960.91
2016-10-18T02:35:08.382Z,960.94
2016-10-18T02:36:08.472Z,960.93
2016-10-18T02:37:08.421Z,960.87
2016-10-18T02:38:08.274Z,960.94
2016-10-18T02:39:08.295Z,960.91
2016-10-18T02:40:08.321Z,960.89
2016-10-18T02:41:08.478Z,960.90
2016-10-18T02:42:08.325Z,960.86
2016-10-18T02:43:08.510Z,960.87
2016-10-18T02:44:08.433Z,960.85
2016-10-18T02:45:09.306Z,960.83
2016-10-18T02:46:07.580Z,960.83
2016-10-18T02:47:08.432Z,960.83
2016-10-18T02:48:08.389Z,960.81
2016-10-18T02:49:08.283Z,960.83
2016-10-18T02:50:08.266Z,960.84
2016-10-18T02:51:08.830Z,960.80
2016-10-18T02:52:08.394Z,960.79
2016-10-18T02:53:07.565Z,960.78
2016-10-18T02:54:08.317Z,960.79
2016-10-18T02:55:08.426Z,960.80
2016-10-18T02:56:08.293Z,960.82
2016-10-18T02:57:07.576Z,960.77
2016-10-18T02:58:08.381Z,960.83
2016-10-18T02:59:08.276Z,960.81
2016-10-18T03:00:08.229Z,960.83
2016-10-18T03:01:08.168Z,960.78
2016-10-18T03:02:08.089Z,960.80
2016-10-18T03:03:08.086Z,960.79
2016-10-18T03:04:08.625Z,960.83
2016-10-18T03:05:07.917Z,960.82
2016-10-18T03:06:15.525Z,960.79
2016-10-18T03:07:07.803Z,960.76
2016-10-18T03:08:07.721Z,960.76
2016-10-18T03:09:07.684Z,960.80
2016-10-18T03:10:08.321Z,960.77
2016-10-18T03:11:08.466Z,960.76
2016-10-18T03:12:08.321Z,960.75
2016-10-18T03:13:08.345Z,960.74
2016-10-18T03:14:07.539Z,960.77
2016-10-18T03:15:09.675Z,960.73
2016-10-18T03:16:08.294Z,960.76
2016-10-18T03:17:08.159Z,960.76
2016-10-18T03:18:08.270Z,960.72
2016-10-18T03:19:08.173Z,960.75
2016-10-18T03:20:08.197Z,960.77
2016-10-18T03:21:08.167Z,960.73
2016-10-18T03:22:08.201Z,960.77
2016-10-18T03:23:08.156Z,960.73
2016-10-18T03:24:08.172Z,960.75
2016-10-18T03:25:08.113Z,960.72
2016-10-18T03:26:08.146Z,960.73
2016-10-18T03:27:08.136Z,960.71
2016-10-18T03:28:08.216Z,960.71
2016-10-18T03:29:08.071Z,960.71
2016-10-18T03:30:09.035Z,960.73
2016-10-18T03:31:14.725Z,960.76
2016-10-18T03:32:07.870Z,960.73
2016-10-18T03:33:07.776Z,960.73
2016-10-18T03:34:07.696Z,960.69
2016-10-18T03:35:08.489Z,960.70
2016-10-18T03:36:08.526Z,960.71
2016-10-18T03:37:08.446Z,960.74
2016-10-18T03:38:08.382Z,960.70
2016-10-18T03:39:08.359Z,960.72
2016-10-18T03:40:08.379Z,960.69
2016-10-18T03:41:08.249Z,960.67
2016-10-18T03:42:08.183Z,960.66
2016-10-18T03:43:08.158Z,960.66
2016-10-18T03:44:08.186Z,960.67
2016-10-18T03:45:08.291Z,960.64
2016-10-18T03:46:09.830Z,960.66
2016-10-18T03:47:07.961Z,960.62
2016-10-18T03:48:07.828Z,960.66
2016-10-18T03:49:07.558Z,960.65
2016-10-18T03:50:07.684Z,960.66
2016-10-18T03:51:08.355Z,960.67
2016-10-18T03:52:08.342Z,960.65
2016-10-18T03:53:08.624Z,960.65
2016-10-18T03:54:07.692Z,960.62
2016-10-18T03:55:07.592Z,960.66
2016-10-18T03:56:08.387Z,960.64
2016-10-18T03:57:08.343Z,960.66
2016-10-18T03:58:08.282Z,960.62
2016-10-18T03:59:08.321Z,960.62
2016-10-18T04:00:08.293Z,960.65
2016-10-18T04:01:08.188Z,960.66
2016-10-18T04:02:08.028Z,960.65
2016-10-18T04:03:14.464Z,960.65
2016-10-18T04:04:08.064Z,960.66
2016-10-18T04:05:07.848Z,960.66
2016-10-18T04:06:07.692Z,960.66
2016-10-18T04:07:07.611Z,960.61
2016-10-18T04:08:07.649Z,960.62
2016-10-18T04:09:08.193Z,960.63
2016-10-18T04:10:08.298Z,960.60
2016-10-18T04:11:08.306Z,960.62
2016-10-18T04:12:08.264Z,960.62
2016-10-18T04:13:08.261Z,960.64
2016-10-18T04:14:08.304Z,960.63
2016-10-18T04:15:09.074Z,960.60
2016-10-18T04:16:09.982Z,960.60
2016-10-18T04:17:08.259Z,960.61
2016-10-18T04:18:08.272Z,960.58
2016-10-18T04:19:08.207Z,960.62
2016-10-18T04:20:08.155Z,960.62
2016-10-18T04:21:08.091Z,960.62
2016-10-18T04:22:07.916Z,960.62
2016-10-18T04:23:08.039Z,960.63
2016-10-18T04:24:07.951Z,960.59
2016-10-18T04:25:10.549Z,960.62
2016-10-18T04:26:07.806Z,960.60
2016-10-18T04:27:07.701Z,960.62
2016-10-18T04:28:07.574Z,960.65
2016-10-18T04:29:08.370Z,960.63
2016-10-18T04:30:08.610Z,960.59
2016-10-18T04:31:08.330Z,960.61
2016-10-18T04:32:08.231Z,960.58
2016-10-18T04:33:08.741Z,960.64
2016-10-18T04:34:08.977Z,960.61
2016-10-18T04:35:08.141Z,960.64
2016-10-18T04:36:08.239Z,960.61
2016-10-18T04:37:08.151Z,960.62
2016-10-18T04:38:08.165Z,960.63
2016-10-18T04:39:08.607Z,960.60
2016-10-18T04:40:14.415Z,960.63
2016-10-18T04:41:07.609Z,960.66
2016-10-18T04:42:08.328Z,960.69
2016-10-18T04:43:08.342Z,960.63
2016-10-18T04:44:08.404Z,960.60
2016-10-18T04:45:08.704Z,960.59
2016-10-18T04:46:08.352Z,960.60
2016-10-18T04:47:08.292Z,960.60
2016-10-18T04:48:08.356Z,960.58
2016-10-18T04:49:08.253Z,960.63
2016-10-18T04:50:08.206Z,960.57
2016-10-18T04:51:08.249Z,960.59
2016-10-18T04:52:08.250Z,960.60
2016-10-18T04:53:08.274Z,960.58
2016-10-18T04:54:08.071Z,960.58
2016-10-18T04:55:07.938Z,960.57
2016-10-18T04:56:07.800Z,960.58
2016-10-18T04:57:07.731Z,960.59
2016-10-18T04:58:07.560Z,960.55
2016-10-18T04:59:08.546Z,960.57
2016-10-18T05:00:08.637Z,960.53
2016-10-18T05:01:10.229Z,960.56
2016-10-18T05:02:08.182Z,960.58
2016-10-18T05:03:08.260Z,960.59
2016-10-18T05:04:08.241Z,960.54
2016-10-18T05:05:08.112Z,960.54
2016-10-18T05:06:08.051Z,960.57
2016-10-18T05:07:08.014Z,960.52
2016-10-18T05:08:08.045Z,960.51
2016-10-18T05:09:07.628Z,960.52
2016-10-18T05:10:07.488Z,960.55
2016-10-18T05:11:08.558Z,960.50
2016-10-18T05:12:08.287Z,960.53
2016-10-18T05:13:08.277Z,960.48
2016-10-18T05:14:08.246Z,960.51
2016-10-18T05:15:08.248Z,960.50
2016-10-18T05:16:08.118Z,960.54
2016-10-18T05:17:09.063Z,960.56
2016-10-18T05:18:08.238Z,960.53
2016-10-18T05:19:08.043Z,960.57
2016-10-18T05:20:07.892Z,960.50
2016-10-18T05:21:07.827Z,960.54
2016-10-18T05:22:07.638Z,960.52
2016-10-18T05:23:08.420Z,960.56
2016-10-18T05:24:08.285Z,960.55
2016-10-18T05:25:08.286Z,960.55
2016-10-18T05:26:08.117Z,960.57
2016-10-18T05:27:08.150Z,960.56
2016-10-18T05:28:08.137Z,960.53
2016-10-18T05:29:08.189Z,960.54
2016-10-18T05:30:08.143Z,960.55
2016-10-18T05:31:08.072Z,960.54
2016-10-18T05:32:07.897Z,960.56
2016-10-18T05:33:07.865Z,960.56
2016-10-18T05:34:07.850Z,960.57
2016-10-18T05:35:08.433Z,960.53
2016-10-18T05:36:08.312Z,960.59
2016-10-18T05:37:08.329Z,960.55
2016-10-18T05:38:09.229Z,960.59
2016-10-18T05:39:08.280Z,960.57
2016-10-18T05:40:08.290Z,960.60
2016-10-18T05:41:07.996Z,960.58
2016-10-18T05:42:07.866Z,960.55
2016-10-18T05:43:07.790Z,960.57
2016-10-18T05:44:07.843Z,960.61
2016-10-18T05:45:07.872Z,960.56
2016-10-18T05:46:09.251Z,960.59
2016-10-18T05:47:08.330Z,960.56
2016-10-18T05:48:08.311Z,960.59
2016-10-18T05:49:08.261Z,960.60
2016-10-18T05:50:08.359Z,960.61
2016-10-18T05:51:08.267Z,960.60
2016-10-18T05:52:08.064Z,960.60
2016-10-18T05:53:08.205Z,960.62
2016-10-18T05:54:08.994Z,960.62
2016-10-18T05:55:08.129Z,960.68
2016-10-18T05:56:07.881Z,960.64
2016-10-18T05:57:07.708Z,960.65
2016-10-18T05:58:07.756Z,960.63
2016-10-18T05:59:07.606Z,960.63
2016-10-18T06:00:08.449Z,960.61
2016-10-18T06:01:08.594Z,960.60
2016-10-18T06:02:08.213Z,960.63
2016-10-18T06:03:08.183Z,960.66
2016-10-18T06:04:08.227Z,960.64
2016-10-18T06:05:07.933Z,960.66
2016-10-18T06:06:08.353Z,960.62
2016-10-18T06:07:07.710Z,960.65
2016-10-18T06:08:07.551Z,960.65
2016-10-18T06:09:08.373Z,960.63
2016-10-18T06:10:08.254Z,960.63
2016-10-18T06:11:08.035Z,960.66
2016-10-18T06:12:07.985Z,960.67
2016-10-18T06:13:07.851Z,960.64
2016-10-18T06:14:07.730Z,960.67
2016-10-18T06:15:07.584Z,960.67
2016-10-18T06:16:08.659Z,960.70
2016-10-18T06:17:08.375Z,960.72
2016-10-18T06:18:08.444Z,960.72
2016-10-18T06:19:08.291Z,960.73
2016-10-18T06:20:09.064Z,960.75
2016-10-18T06:21:08.206Z,960.75
2016-10-18T06:22:08.154Z,960.77
2016-10-18T06:23:07.958Z,960.75
2016-10-18T06:24:07.864Z,960.74
2016-10-18T06:25:07.792Z,960.73
2016-10-18T06:26:07.593Z,960.70
2016-10-18T06:27:07.597Z,960.73
2016-10-18T06:28:08.332Z,960.74
2016-10-18T06:29:08.303Z,960.77
2016-10-18T06:30:08.684Z,960.73
2016-10-18T06:31:16.876Z,960.74
2016-10-18T06:32:08.123Z,960.73
2016-10-18T06:33:15.364Z,960.74
2016-10-18T06:34:09.450Z,960.78
2016-10-18T06:35:09.036Z,960.76
2016-10-18T06:36:07.770Z,960.79
2016-10-18T06:37:07.576Z,960.74
2016-10-18T06:38:08.973Z,960.80
2016-10-18T06:39:08.321Z,960.80
2016-10-18T06:40:08.307Z,960.80
2016-10-18T06:41:08.216Z,960.78
2016-10-18T06:42:08.340Z,960.80
2016-10-18T06:43:08.186Z,960.79
2016-10-18T06:44:07.963Z,960.84
2016-10-18T06:45:07.976Z,960.83
2016-10-18T06:46:07.881Z,960.83
2016-10-18T06:47:07.706Z,960.85
2016-10-18T06:48:07.602Z,960.85
2016-10-18T06:49:08.247Z,960.84
2016-10-18T06:50:08.280Z,960.87
2016-10-18T06:51:08.146Z,960.84
2016-10-18T06:52:08.086Z,960.86
2016-10-18T06:53:08.227Z,960.88
2016-10-18T06:54:07.974Z,960.82
2016-10-18T06:55:07.931Z,960.84
2016-10-18T06:56:07.713Z,960.81
2016-10-18T06:57:13.294Z,960.88
2016-10-18T06:58:07.626Z,960.84
2016-10-18T06:59:08.185Z,960.89
2016-10-18T07:00:08.079Z,960.93
2016-10-18T07:01:08.045Z,960.90
2016-10-18T07:02:07.875Z,960.90
2016-10-18T07:03:07.813Z,960.89
2016-10-18T07:04:07.668Z,960.89
2016-10-18T07:05:08.332Z,960.90
2016-10-18T07:06:08.214Z,960.95
2016-10-18T07:07:08.245Z,960.88
2016-10-18T07:08:08.103Z,960.90
2016-10-18T07:09:07.945Z,960.94
2016-10-18T07:10:07.874Z,960.95
2016-10-18T07:11:07.833Z,960.92
2016-10-18T07:12:07.619Z,960.96
2016-10-18T07:13:08.287Z,960.95
2016-10-18T07:14:08.236Z,961.01
2016-10-18T07:15:08.093Z,960.95
2016-10-18T07:16:08.120Z,960.97
2016-10-18T07:17:08.138Z,960.98
2016-10-18T07:18:08.175Z,960.99
2016-10-18T07:19:08.053Z,961.01
2016-10-18T07:20:07.951Z,960.98
2016-10-18T07:21:07.737Z,961.00
2016-10-18T07:22:07.649Z,960.98
2016-10-18T07:23:08.483Z,960.98
2016-10-18T07:24:08.443Z,960.99
2016-10-18T07:25:08.351Z,960.94
2016-10-18T07:26:08.399Z,960.99
2016-10-18T07:27:08.291Z,961.00
2016-10-18T07:28:08.345Z,960.96
2016-10-18T07:29:08.072Z,960.99
2016-10-18T07:30:07.832Z,960.94
2016-10-18T07:31:07.870Z,961.00
2016-10-18T07:32:07.708Z,960.98
2016-10-18T07:33:08.419Z,960.95
2016-10-18T07:34:08.270Z,960.95
2016-10-18T07:35:08.274Z,960.99
2016-10-18T07:36:09.007Z,960.95
2016-10-18T07:37:08.047Z,960.99
2016-10-18T07:38:07.985Z,961.00
2016-10-18T07:39:07.870Z,960.96
2016-10-18T07:40:13.120Z,960.99
2016-10-18T07:41:08.373Z,960.98
2016-10-18T07:42:08.315Z,960.99
2016-10-18T07:43:08.384Z,961.01
2016-10-18T07:44:08.161Z,961.00
2016-10-18T07:45:08.029Z,960.98
2016-10-18T07:46:07.975Z,960.97
2016-10-18T07:47:07.883Z,961.02
2016-10-18T07:48:07.723Z,961.02
2016-10-18T07:49:08.481Z,961.02
2016-10-18T07:50:08.314Z,961.02
2016-10-18T07:51:08.364Z,961.05
2016-10-18T07:52:08.078Z,961.02
2016-10-18T07:53:08.024Z,961.04
2016-10-18T07:54:08.664Z,961.02
2016-10-18T07:55:07.714Z,961.04
2016-10-18T07:56:07.655Z,961.05
2016-10-18T07:57:08.334Z,961.07
2016-10-18T07:58:08.377Z,961.04
2016-10-18T07:59:08.392Z,961.04
2016-10-18T08:00:08.259Z,961.08
2016-10-18T08:01:08.085Z,961.06
2016-10-18T08:02:08.098Z,961.06
2016-10-18T08:03:07.936Z,961.01
2016-10-18T08:04:07.726Z,961.07
2016-10-18T08:05:07.689Z,961.03
2016-10-18T08:06:08.037Z,961.07
2016-10-18T08:07:08.310Z,961.03
2016-10-18T08:08:08.110Z,961.06
2016-10-18T08:09:07.939Z,961.04
2016-10-18T08:10:08.026Z,961.04
2016-10-18T08:11:07.815Z,961.07
2016-10-18T08:12:07.654Z,961.08
2016-10-18T08:13:07.661Z,961.09
2016-10-18T08:14:09.183Z,961.09
2016-10-18T08:15:08.194Z,961.08
2016-10-18T08:16:08.219Z,961.10
2016-10-18T08:17:08.317Z,961.10
2016-10-18T08:18:08.145Z,961.07
2016-10-18T08:19:09.063Z,961.12
2016-10-18T08:20:08.065Z,961.08
2016-10-18T08:21:08.002Z,961.09
2016-10-18T08:22:07.975Z,961.12
2016-10-18T08:23:07.728Z,961.11
2016-10-18T08:24:07.434Z,961.10
2016-10-18T08:25:14.236Z,961.10
2016-10-18T08:26:09.074Z,961.12
2016-10-18T08:27:08.358Z,961.13
2016-10-18T08:28:08.145Z,961.15
2016-10-18T08:29:08.025Z,961.10
2016-10-18T08:30:07.957Z,961.13
2016-10-18T08:31:07.715Z,961.15
2016-10-18T08:32:07.436Z,961.17
2016-10-18T08:33:08.498Z,961.13
2016-10-18T08:34:08.337Z,961.16
2016-10-18T08:35:14.856Z,961.18
2016-10-18T08:36:08.041Z,961.17
2016-10-18T08:37:07.903Z,961.18
2016-10-18T08:38:07.907Z,961.15
2016-10-18T08:39:07.453Z,961.18
2016-10-18T08:40:08.519Z,961.16
2016-10-18T08:41:08.428Z,961.20
2016-10-18T08:42:08.282Z,961.18
2016-10-18T08:43:08.173Z,961.14
2016-10-18T08:44:08.045Z,961.18
2016-10-18T08:45:07.773Z,961.24
2016-10-18T08:46:07.667Z,961.22
2016-10-18T08:47:08.424Z,961.21
2016-10-18T08:48:08.445Z,961.21
2016-10-18T08:49:08.378Z,961.20
2016-10-18T08:50:08.008Z,961.21
2016-10-18T08:51:08.897Z,961.20
2016-10-18T08:52:07.782Z,961.23
2016-10-18T08:53:07.697Z,961.23
2016-10-18T08:54:09.358Z,961.20
2016-10-18T08:55:08.460Z,961.21
2016-10-18T08:56:08.408Z,961.21
2016-10-18T08:57:08.174Z,961.21
2016-10-18T08:58:08.863Z,961.22
2016-10-18T08:59:07.962Z,961.23
2016-10-18T09:00:07.927Z,961.21
2016-10-18T09:01:07.700Z,961.20
2016-10-18T09:02:08.547Z,961.17
2016-10-18T09:03:08.545Z,961.24
2016-10-18T09:04:08.338Z,961.20
2016-10-18T09:05:08.224Z,961.21
2016-10-18T09:06:08.109Z,961.18
2016-10-18T09:07:08.045Z,961.16
2016-10-18T09:08:07.726Z,961.19
2016-10-18T09:09:07.544Z,961.17
2016-10-18T09:10:08.478Z,961.20
2016-10-18T09:11:08.355Z,961.20
2016-10-18T09:12:08.262Z,961.22
2016-10-18T09:13:09.206Z,961.20
2016-10-18T09:14:07.896Z,961.23
2016-10-18T09:15:07.813Z,961.27
2016-10-18T09:16:07.705Z,961.25
2016-10-18T09:17:08.511Z,961.25
2016-10-18T09:18:08.531Z,961.27
2016-10-18T09:19:08.303Z,961.24
2016-10-18T09:20:08.131Z,961.33
2016-10-18T09:21:08.011Z,961.22
2016-10-18T09:22:07.921Z,961.25
2016-10-18T09:23:08.495Z,961.24
2016-10-18T09:24:07.752Z,961.25
2016-10-18T09:25:08.346Z,961.26
2016-10-18T09:26:08.390Z,961.27
2016-10-18T09:27:08.356Z,961.26
2016-10-18T09:28:08.179Z,961.26
2016-10-18T09:29:08.095Z,961.31
2016-10-18T09:30:07.964Z,961.29
2016-10-18T09:31:08.367Z,961.24
2016-10-18T09:32:07.808Z,961.28
2016-10-18T09:33:08.350Z,961.25
2016-10-18T09:34:08.438Z,961.28
2016-10-18T09:35:08.197Z,961.26
2016-10-18T09:36:08.129Z,961.27
2016-10-18T09:37:08.019Z,961.31
2016-10-18T09:38:07.743Z,961.31
2016-10-18T09:39:07.526Z,961.31
2016-10-18T09:40:08.527Z,961.31
2016-10-18T09:41:08.458Z,961.25
2016-10-18T09:42:08.281Z,961.25
2016-10-18T09:43:08.302Z,961.29
2016-10-18T09:44:08.170Z,961.26
2016-10-18T09:45:07.889Z,961.26
2016-10-18T09:46:07.927Z,961.26
2016-10-18T09:47:07.585Z,961.28
2016-10-18T09:48:08.563Z,961.28
2016-10-18T09:49:08.649Z,961.24
2016-10-18T09:50:08.293Z,961.29
2016-10-18T09:51:08.123Z,961.31
2016-10-18T09:52:07.953Z,961.26
2016-10-18T09:53:07.939Z,961.32
2016-10-18T09:54:07.692Z,961.26
2016-10-18T09:55:08.410Z,961.29
2016-10-18T09:56:08.363Z,961.29
2016-10-18T09:57:08.436Z,961.24
2016-10-18T09:58:08.222Z,961.25
2016-10-18T09:59:08.166Z,961.25
2016-10-18T10:00:07.935Z,961.22
2016-10-18T10:01:07.842Z,961.26
2016-10-18T10:02:08.890Z,961.26
2016-10-18T10:03:09.348Z,961.20
2016-10-18T10:04:08.331Z,961.22
2016-10-18T10:05:08.819Z,961.26
2016-10-18T10:06:08.199Z,961.29
2016-10-18T10:07:07.874Z,961.26
2016-10-18T10:08:08.853Z,961.22
2016-10-18T10:09:08.603Z,961.22
2016-10-18T10:10:08.396Z,961.26
2016-10-18T10:11:08.247Z,961.25
2016-10-18T10:12:08.237Z,961.25
2016-10-18T10:13:08.014Z,961.27
2016-10-18T10:14:07.797Z,961.18
2016-10-18T10:15:07.801Z,961.20
2016-10-18T10:16:09.785Z,961.23
2016-10-18T10:17:08.513Z,961.25
2016-10-18T10:18:08.347Z,961.25
2016-10-18T10:19:08.287Z,961.25
2016-10-18T10:20:08.208Z,961.27
2016-10-18T10:21:08.043Z,961.32
2016-10-18T10:22:07.801Z,961.30
2016-10-18T10:23:07.855Z,961.31
2016-10-18T10:24:07.534Z,961.27
2016-10-18T10:25:08.229Z,961.29
2016-10-18T10:26:08.209Z,961.29
2016-10-18T10:27:07.977Z,961.29
2016-10-18T10:28:07.845Z,961.29
2016-10-18T10:29:08.214Z,961.30
2016-10-18T10:30:07.684Z,961.30
2016-10-18T10:31:08.430Z,961.30
2016-10-18T10:32:08.296Z,961.29
2016-10-18T10:33:08.172Z,961.29
2016-10-18T10:34:08.159Z,961.26
2016-10-18T10:35:08.726Z,961.27
2016-10-18T10:36:07.575Z,961.28
2016-10-18T10:37:08.334Z,961.29
2016-10-18T10:38:08.247Z,961.26
2016-10-18T10:39:07.937Z,961.23
2016-10-18T10:40:08.609Z,961.24
2016-10-18T10:41:07.828Z,961.25
2016-10-18T10:42:08.565Z,961.22
2016-10-18T10:43:08.316Z,961.25
2016-10-18T10:44:08.241Z,961.21
2016-10-18T10:45:08.176Z,961.23
2016-10-18T10:46:09.232Z,961.24
2016-10-18T10:47:07.675Z,961.22
2016-10-18T10:48:07.664Z,961.24
2016-10-18T10:49:08.362Z,961.21
2016-10-18T10:50:08.221Z,961.20
2016-10-18T10:51:08.048Z,961.25
2016-10-18T10:52:07.950Z,961.22
2016-10-18T10:53:07.793Z,961.22
2016-10-18T10:54:07.593Z,961.23
2016-10-18T10:55:08.932Z,961.19
2016-10-18T10:56:08.231Z,961.22
2016-10-18T10:57:08.062Z,961.19
2016-10-18T10:58:08.006Z,961.19
2016-10-18T10:59:07.693Z,961.21
2016-10-18T11:00:07.657Z,961.19
2016-10-18T11:01:08.380Z,961.19
2016-10-18T11:02:08.339Z,961.20
2016-10-18T11:03:08.132Z,961.20
2016-10-18T11:04:07.838Z,961.23
2016-10-18T11:05:07.880Z,961.18
2016-10-18T11:06:07.602Z,961.20
2016-10-18T11:07:08.331Z,961.17
2016-10-18T11:08:08.208Z,961.15
2016-10-18T11:09:08.061Z,961.19
2016-10-18T11:10:07.881Z,961.17
2016-10-18T11:11:07.655Z,961.16
2016-10-18T11:12:08.417Z,961.13
2016-10-18T11:13:08.366Z,961.14
2016-10-18T11:14:08.221Z,961.12
2016-10-18T11:15:08.072Z,961.13
2016-10-18T11:16:10.122Z,961.13
2016-10-18T11:17:07.869Z,961.09
2016-10-18T11:18:07.609Z,961.10
2016-10-18T11:19:08.564Z,961.09
2016-10-18T11:20:08.387Z,961.10
2016-10-18T11:21:08.109Z,961.10
2016-10-18T11:22:08.450Z,961.11
2016-10-18T11:23:07.763Z,961.10
2016-10-18T11:24:07.787Z,961.11
2016-10-18T11:25:08.420Z,961.09
2016-10-18T11:26:08.239Z,961.11
2016-10-18T11:27:08.172Z,961.11
2016-10-18T11:28:07.975Z,961.10
2016-10-18T11:29:07.718Z,961.10
2016-10-18T11:30:08.358Z,961.09
2016-10-18T11:31:08.300Z,961.12
2016-10-18T11:32:10.349Z,961.10
2016-10-18T11:33:07.957Z,961.09
2016-10-18T11:34:07.687Z,961.10
2016-10-18T11:35:07.654Z,961.07
2016-10-18T11:36:08.407Z,961.12
2016-10-18T11:37:08.301Z,961.14
2016-10-18T11:38:08.200Z,961.11
2016-10-18T11:39:07.869Z,961.13
2016-10-18T11:40:08.793Z,961.12
2016-10-18T11:41:07.680Z,961.11
2016-10-18T11:42:08.409Z,961.11
2016-10-18T11:43:08.269Z,961.12
2016-10-18T11:44:08.069Z,961.12
2016-10-18T11:45:08.019Z,961.13
2016-10-18T11:46:09.029Z,961.11
2016-10-18T11:47:07.589Z,961.11
2016-10-18T11:48:08.362Z,961.12
2016-10-18T11:49:08.299Z,961.09
2016-10-18T11:50:08.151Z,961.12
2016-10-18T11:51:14.553Z,961.11
2016-10-18T11:52:07.747Z,961.13
2016-10-18T11:53:07.677Z,961.07
2016-10-18T11:54:08.462Z,961.08
2016-10-18T11:55:08.305Z,961.07
2016-10-18T11:56:08.172Z,961.08
2016-10-18T11:57:08.019Z,961.08
2016-10-18T11:58:07.821Z,961.08
2016-10-18T11:59:07.860Z,961.08
2016-10-18T12:00:08.413Z,961.08
2016-10-18T12:01:08.383Z,961.08
2016-10-18T12:02:08.219Z,961.06
2016-10-18T12:03:08.064Z,961.07
2016-10-18T12:04:07.824Z,961.04
2016-10-18T12:05:07.777Z,961.03
2016-10-18T12:06:08.476Z,961.04
2016-10-18T12:07:08.435Z,961.07
2016-10-18T12:08:08.327Z,961.03
2016-10-18T12:09:08.247Z,961.01
2016-10-18T12:10:08.047Z,961.04
2016-10-18T12:11:07.810Z,961.04
2016-10-18T12:12:07.959Z,961.02
2016-10-18T12:13:08.380Z,960.99
2016-10-18T12:14:08.308Z,961.03
2016-10-18T12:15:08.130Z,961.01
2016-10-18T12:16:07.933Z,961.01
2016-10-18T12:17:13.562Z,961.04
2016-10-18T12:18:07.879Z,961.03
2016-10-18T12:19:07.657Z,961.02
2016-10-18T12:20:08.451Z,960.99
2016-10-18T12:21:08.212Z,961.02
2016-10-18T12:22:08.122Z,961.00
2016-10-18T12:23:08.004Z,960.97
2016-10-18T12:24:07.857Z,960.97
2016-10-18T12:25:13.983Z,960.97
2016-10-18T12:26:08.479Z,961.00
2016-10-18T12:27:08.331Z,960.98
2016-10-18T12:28:08.145Z,960.97